sensor_id;sensor_type;location;lat;lon;timestamp;P1;durP1;ratioP1;P2;durP2;ratioP2
60233;SDS011;49514;43.538;-5.708;2024-03-08T06:47:34;7.50;;;1.77;;
60233;SDS011;49514;43.538;-5.708;2024-03-08T06:50:01;12.23;;;2.15;;
60233;SDS011;49514;43.538;-5.708;2024-03-08T06:52:29;14.15;;;2.60;;
60233;SDS011;49514;43.538;-5.708;2024-03-08T06:54:56;19.40;;;3.90;;
60233;SDS011;49514;43.538;-5.708;2024-03-08T06:57:23;21.13;;;4.72;;
60233;SDS011;49514;43.538;-5.708;2024-03-08T06:59:49;15.52;;;3.22;;
60233;SDS011;49514;43.538;-5.708;2024-03-08T07:02:18;21.50;;;3.25;;
60233;SDS011;49514;43.538;-5.708;2024-03-08T07:04:44;11.68;;;2.80;;
60233;SDS011;49514;43.538;-5.708;2024-03-08T07:07:11;10.23;;;2.50;;
60233;SDS011;49514;43.538;-5.708;2024-03-08T07:09:38;13.73;;;2.55;;
60233;SDS011;49514;43.538;-5.708;2024-03-08T07:12:04;25.58;;;3.33;;
60233;SDS011;49514;43.538;-5.708;2024-03-08T07:14:32;28.80;;;4.22;;
60233;SDS011;49514;43.538;-5.708;2024-03-08T07:16:58;20.13;;;3.85;;
60233;SDS011;49514;43.538;-5.708;2024-03-08T07:19:25;23.88;;;3.85;;
60233;SDS011;49514;43.538;-5.708;2024-03-08T07:21:52;14.95;;;3.42;;
60233;SDS011;49514;43.538;-5.708;2024-03-08T07:24:19;13.75;;;2.50;;
60233;SDS011;49514;43.538;-5.708;2024-03-08T07:26:53;8.43;;;2.40;;
60233;SDS011;49514;43.538;-5.708;2024-03-08T07:29:21;18.83;;;3.38;;
60233;SDS011;49514;43.538;-5.708;2024-03-08T07:31:48;13.73;;;3.20;;
60233;SDS011;49514;43.538;-5.708;2024-03-08T07:34:24;22.20;;;3.72;;
60233;SDS011;49514;43.538;-5.708;2024-03-08T07:36:50;13.23;;;3.67;;
60233;SDS011;49514;43.538;-5.708;2024-03-08T07:39:17;20.10;;;4.07;;
60233;SDS011;49514;43.538;-5.708;2024-03-08T07:41:44;32.03;;;3.90;;
60233;SDS011;49514;43.538;-5.708;2024-03-08T07:44:11;13.23;;;3.78;;
60233;SDS011;49514;43.538;-5.708;2024-03-08T07:46:40;29.80;;;4.03;;
60233;SDS011;49514;43.538;-5.708;2024-03-08T07:49:07;25.88;;;4.72;;
60233;SDS011;49514;43.538;-5.708;2024-03-08T07:51:37;21.17;;;4.25;;
60233;SDS011;49514;43.538;-5.708;2024-03-08T07:54:04;16.63;;;4.53;;
60233;SDS011;49514;43.538;-5.708;2024-03-08T07:56:31;24.30;;;5.75;;
60233;SDS011;49514;43.538;-5.708;2024-03-08T07:58:58;32.35;;;5.88;;
60233;SDS011;49514;43.538;-5.708;2024-03-08T08:01:24;30.05;;;5.28;;
60233;SDS011;49514;43.538;-5.708;2024-03-08T08:03:51;19.77;;;4.05;;
60233;SDS011;49514;43.538;-5.708;2024-03-08T08:06:18;23.38;;;3.60;;
60233;SDS011;49514;43.538;-5.708;2024-03-08T08:09:03;22.63;;;3.42;;
60233;SDS011;49514;43.538;-5.708;2024-03-08T08:11:31;14.55;;;3.42;;
60233;SDS011;49514;43.538;-5.708;2024-03-08T08:13:58;12.35;;;2.65;;
60233;SDS011;49514;43.538;-5.708;2024-03-08T08:16:25;19.98;;;3.50;;
60233;SDS011;49514;43.538;-5.708;2024-03-08T08:18:52;16.15;;;3.25;;
60233;SDS011;49514;43.538;-5.708;2024-03-08T08:21:18;10.23;;;3.08;;
60233;SDS011;49514;43.538;-5.708;2024-03-08T08:23:45;9.88;;;2.80;;
60233;SDS011;49514;43.538;-5.708;2024-03-08T08:26:12;13.88;;;3.13;;
60233;SDS011;49514;43.538;-5.708;2024-03-08T08:28:39;16.73;;;3.88;;
60233;SDS011;49514;43.538;-5.708;2024-03-08T08:31:06;16.45;;;3.50;;
60233;SDS011;49514;43.538;-5.708;2024-03-08T08:33:34;12.52;;;3.10;;
60233;SDS011;49514;43.538;-5.708;2024-03-08T08:36:02;10.68;;;2.78;;
60233;SDS011;49514;43.538;-5.708;2024-03-08T08:38:29;12.82;;;2.80;;
60233;SDS011;49514;43.538;-5.708;2024-03-08T08:40:56;11.63;;;2.85;;
60233;SDS011;49514;43.538;-5.708;2024-03-08T08:43:23;5.28;;;1.85;;
60233;SDS011;49514;43.538;-5.708;2024-03-08T08:45:51;3.28;;;0.90;;
60233;SDS011;49514;43.538;-5.708;2024-03-08T08:48:20;2.22;;;0.80;;
60233;SDS011;49514;43.538;-5.708;2024-03-08T08:50:47;1.95;;;0.88;;
60233;SDS011;49514;43.538;-5.708;2024-03-08T08:53:14;4.07;;;1.10;;
60233;SDS011;49514;43.538;-5.708;2024-03-08T08:55:42;4.50;;;0.95;;
60233;SDS011;49514;43.538;-5.708;2024-03-08T08:58:09;3.75;;;1.10;;
60233;SDS011;49514;43.538;-5.708;2024-03-08T09:00:37;2.90;;;0.60;;
60233;SDS011;49514;43.538;-5.708;2024-03-08T09:03:03;0.88;;;0.50;;
60233;SDS011;49514;43.538;-5.708;2024-03-08T09:05:32;1.98;;;0.50;;
60233;SDS011;49514;43.538;-5.708;2024-03-08T09:07:59;0.73;;;0.40;;
60233;SDS011;49514;43.538;-5.708;2024-03-08T09:10:26;1.55;;;0.47;;
60233;SDS011;49514;43.538;-5.708;2024-03-08T09:12:53;0.70;;;0.50;;
60233;SDS011;49514;43.538;-5.708;2024-03-08T09:15:20;1.48;;;0.50;;
60233;SDS011;49514;43.538;-5.708;2024-03-08T09:17:47;0.38;;;0.38;;
60233;SDS011;49514;43.538;-5.708;2024-03-08T09:30:05;0.75;;;0.43;;
60233;SDS011;49514;43.538;-5.708;2024-03-08T09:32:32;1.58;;;0.40;;
60233;SDS011;49514;43.538;-5.708;2024-03-08T11:31:51;1.75;;;0.70;;
60233;SDS011;49514;43.538;-5.708;2024-03-08T11:34:19;7.00;;;1.00;;
60233;SDS011;49514;43.538;-5.708;2024-03-08T11:36:47;2.00;;;0.73;;
60233;SDS011;49514;43.538;-5.708;2024-03-08T11:39:14;1.05;;;0.60;;
60233;SDS011;49514;43.538;-5.708;2024-03-08T11:41:43;1.83;;;0.70;;
60233;SDS011;49514;43.538;-5.708;2024-03-08T11:44:12;2.17;;;0.80;;
60233;SDS011;49514;43.538;-5.708;2024-03-08T11:46:42;2.22;;;0.77;;
60233;SDS011;49514;43.538;-5.708;2024-03-08T11:49:13;2.50;;;0.80;;
60233;SDS011;49514;43.538;-5.708;2024-03-08T11:51:40;1.40;;;0.63;;
60233;SDS011;49514;43.538;-5.708;2024-03-08T11:54:11;2.72;;;0.90;;
60233;SDS011;49514;43.538;-5.708;2024-03-08T11:56:41;1.60;;;0.67;;
60233;SDS011;49514;43.538;-5.708;2024-03-08T11:59:11;0.95;;;0.60;;
60233;SDS011;49514;43.538;-5.708;2024-03-08T12:01:38;0.73;;;0.47;;
60233;SDS011;49514;43.538;-5.708;2024-03-08T12:04:05;2.58;;;0.70;;
60233;SDS011;49514;43.538;-5.708;2024-03-08T12:06:38;2.30;;;0.80;;
60233;SDS011;49514;43.538;-5.708;2024-03-08T12:09:13;4.32;;;1.70;;
60233;SDS011;49514;43.538;-5.708;2024-03-08T12:11:40;4.30;;;1.70;;
60233;SDS011;49514;43.538;-5.708;2024-03-08T12:14:08;4.60;;;1.40;;
60233;SDS011;49514;43.538;-5.708;2024-03-08T12:16:36;3.03;;;1.40;;
60233;SDS011;49514;43.538;-5.708;2024-03-08T12:19:03;1.95;;;1.05;;
60233;SDS011;49514;43.538;-5.708;2024-03-08T12:21:31;2.40;;;1.05;;
60233;SDS011;49514;43.538;-5.708;2024-03-08T12:24:05;2.25;;;1.30;;
60233;SDS011;49514;43.538;-5.708;2024-03-08T12:26:37;3.67;;;1.55;;
60233;SDS011;49514;43.538;-5.708;2024-03-08T12:29:16;4.18;;;1.38;;
60233;SDS011;49514;43.538;-5.708;2024-03-08T12:31:52;4.90;;;1.40;;
60233;SDS011;49514;43.538;-5.708;2024-03-08T12:34:19;4.93;;;1.42;;
60233;SDS011;49514;43.538;-5.708;2024-03-08T12:36:47;3.28;;;1.10;;
60233;SDS011;49514;43.538;-5.708;2024-03-08T12:39:16;1.27;;;0.80;;
60233;SDS011;49514;43.538;-5.708;2024-03-08T12:41:55;1.45;;;0.70;;
60233;SDS011;49514;43.538;-5.708;2024-03-08T12:44:26;1.67;;;0.85;;
60233;SDS011;49514;43.538;-5.708;2024-03-08T12:46:54;2.70;;;0.80;;
60233;SDS011;49514;43.538;-5.708;2024-03-08T12:49:21;3.03;;;0.80;;
60233;SDS011;49514;43.538;-5.708;2024-03-08T12:51:48;4.07;;;1.20;;
60233;SDS011;49514;43.538;-5.708;2024-03-08T12:54:15;1.40;;;0.80;;
60233;SDS011;49514;43.538;-5.708;2024-03-08T12:56:41;1.73;;;0.60;;
60233;SDS011;49514;43.538;-5.708;2024-03-08T12:59:09;2.42;;;0.80;;
60233;SDS011;49514;43.538;-5.708;2024-03-08T13:01:36;2.67;;;1.10;;
60233;SDS011;49514;43.538;-5.708;2024-03-08T13:04:03;2.17;;;1.17;;
60233;SDS011;49514;43.538;-5.708;2024-03-08T13:06:32;2.23;;;1.10;;
60233;SDS011;49514;43.538;-5.708;2024-03-08T13:08:59;2.65;;;0.70;;
60233;SDS011;49514;43.538;-5.708;2024-03-08T13:11:31;1.70;;;0.77;;
60233;SDS011;49514;43.538;-5.708;2024-03-08T13:14:05;1.47;;;0.73;;
60233;SDS011;49514;43.538;-5.708;2024-03-08T13:16:32;1.17;;;0.80;;
60233;SDS011;49514;43.538;-5.708;2024-03-08T13:19:00;2.35;;;0.75;;
60233;SDS011;49514;43.538;-5.708;2024-03-08T13:21:27;2.53;;;0.90;;
60233;SDS011;49514;43.538;-5.708;2024-03-08T13:23:55;2.03;;;0.75;;
60233;SDS011;49514;43.538;-5.708;2024-03-08T13:26:24;2.65;;;1.30;;
60233;SDS011;49514;43.538;-5.708;2024-03-08T13:28:55;1.60;;;1.10;;
60233;SDS011;49514;43.538;-5.708;2024-03-08T13:31:22;2.43;;;1.37;;
60233;SDS011;49514;43.538;-5.708;2024-03-08T13:33:49;2.88;;;1.60;;
60233;SDS011;49514;43.538;-5.708;2024-03-08T13:36:19;4.13;;;1.65;;
60233;SDS011;49514;43.538;-5.708;2024-03-08T13:38:47;4.07;;;2.30;;
60233;SDS011;49514;43.538;-5.708;2024-03-08T13:41:15;3.30;;;2.20;;
60233;SDS011;49514;43.538;-5.708;2024-03-08T13:43:43;4.18;;;2.05;;
60233;SDS011;49514;43.538;-5.708;2024-03-08T13:46:13;1.83;;;0.77;;
60233;SDS011;49514;43.538;-5.708;2024-03-08T13:48:39;2.38;;;0.80;;
60233;SDS011;49514;43.538;-5.708;2024-03-08T13:51:07;1.30;;;0.80;;
60233;SDS011;49514;43.538;-5.708;2024-03-08T13:53:36;1.65;;;0.80;;
60233;SDS011;49514;43.538;-5.708;2024-03-08T13:56:06;1.20;;;0.80;;
60233;SDS011;49514;43.538;-5.708;2024-03-08T13:58:36;1.33;;;0.65;;
60233;SDS011;49514;43.538;-5.708;2024-03-08T14:01:03;2.53;;;0.90;;
60233;SDS011;49514;43.538;-5.708;2024-03-08T14:03:32;2.17;;;1.00;;
60233;SDS011;49514;43.538;-5.708;2024-03-08T14:05:59;2.78;;;1.13;;
60233;SDS011;49514;43.538;-5.708;2024-03-08T14:08:27;4.03;;;1.23;;
60233;SDS011;49514;43.538;-5.708;2024-03-08T14:10:59;6.87;;;1.40;;
60233;SDS011;49514;43.538;-5.708;2024-03-08T14:13:27;5.70;;;1.50;;
60233;SDS011;49514;43.538;-5.708;2024-03-08T14:15:54;6.75;;;1.70;;
60233;SDS011;49514;43.538;-5.708;2024-03-08T14:18:21;6.72;;;1.73;;
60233;SDS011;49514;43.538;-5.708;2024-03-08T14:20:49;7.55;;;2.10;;
60233;SDS011;49514;43.538;-5.708;2024-03-08T14:23:17;7.17;;;2.20;;
60233;SDS011;49514;43.538;-5.708;2024-03-08T14:25:43;5.18;;;2.10;;
60233;SDS011;49514;43.538;-5.708;2024-03-08T14:28:10;8.23;;;2.42;;
60233;SDS011;49514;43.538;-5.708;2024-03-08T14:30:38;4.90;;;1.80;;
60233;SDS011;49514;43.538;-5.708;2024-03-08T14:33:07;8.00;;;1.77;;
60233;SDS011;49514;43.538;-5.708;2024-03-08T14:35:37;4.05;;;1.40;;
60233;SDS011;49514;43.538;-5.708;2024-03-08T14:38:04;4.37;;;1.43;;
60233;SDS011;49514;43.538;-5.708;2024-03-08T14:40:35;4.47;;;1.42;;
60233;SDS011;49514;43.538;-5.708;2024-03-08T14:43:02;3.83;;;1.70;;
60233;SDS011;49514;43.538;-5.708;2024-03-08T14:45:30;4.57;;;1.77;;
60233;SDS011;49514;43.538;-5.708;2024-03-08T14:47:57;6.38;;;1.60;;
60233;SDS011;49514;43.538;-5.708;2024-03-08T14:50:25;2.85;;;1.50;;
60233;SDS011;49514;43.538;-5.708;2024-03-08T14:52:52;4.20;;;1.37;;
60233;SDS011;49514;43.538;-5.708;2024-03-08T14:55:19;4.10;;;1.40;;
60233;SDS011;49514;43.538;-5.708;2024-03-08T14:57:49;3.33;;;1.15;;
60233;SDS011;49514;43.538;-5.708;2024-03-08T15:00:18;3.60;;;1.30;;
60233;SDS011;49514;43.538;-5.708;2024-03-08T15:03:15;5.50;;;1.27;;
60233;SDS011;49514;43.538;-5.708;2024-03-08T15:05:42;2.92;;;1.13;;
60233;SDS011;49514;43.538;-5.708;2024-03-08T15:10:46;2.90;;;1.20;;
60233;SDS011;49514;43.538;-5.708;2024-03-08T15:23:13;3.70;;;1.00;;
60233;SDS011;49514;43.538;-5.708;2024-03-08T15:50:23;3.08;;;1.40;;
60233;SDS011;49514;43.538;-5.708;2024-03-08T15:52:50;3.92;;;1.20;;
60233;SDS011;49514;43.538;-5.708;2024-03-08T15:55:20;1.50;;;0.80;;
60233;SDS011;49514;43.538;-5.708;2024-03-08T15:57:51;4.07;;;1.08;;
60233;SDS011;49514;43.538;-5.708;2024-03-08T16:00:18;2.95;;;0.98;;
60233;SDS011;49514;43.538;-5.708;2024-03-08T16:03:15;3.30;;;1.15;;
60233;SDS011;49514;43.538;-5.708;2024-03-08T16:05:42;3.55;;;1.20;;
60233;SDS011;49514;43.538;-5.708;2024-03-08T16:08:12;6.20;;;1.40;;
60233;SDS011;49514;43.538;-5.708;2024-03-08T16:10:44;1.58;;;0.80;;
60233;SDS011;49514;43.538;-5.708;2024-03-08T16:13:21;2.83;;;1.00;;
60233;SDS011;49514;43.538;-5.708;2024-03-08T16:15:51;3.63;;;1.38;;
60233;SDS011;49514;43.538;-5.708;2024-03-08T16:18:20;3.75;;;1.45;;
60233;SDS011;49514;43.538;-5.708;2024-03-08T16:20:51;9.60;;;1.75;;
60233;SDS011;49514;43.538;-5.708;2024-03-08T16:23:19;7.38;;;1.50;;
60233;SDS011;49514;43.538;-5.708;2024-03-08T16:25:46;4.30;;;1.25;;
60233;SDS011;49514;43.538;-5.708;2024-03-08T16:28:13;6.75;;;1.50;;
60233;SDS011;49514;43.538;-5.708;2024-03-08T16:30:41;8.02;;;1.63;;
60233;SDS011;49514;43.538;-5.708;2024-03-08T16:33:14;5.20;;;1.17;;
60233;SDS011;49514;43.538;-5.708;2024-03-08T16:35:41;3.33;;;1.20;;
60233;SDS011;49514;43.538;-5.708;2024-03-08T16:38:12;5.82;;;1.45;;
60233;SDS011;49514;43.538;-5.708;2024-03-08T16:40:40;5.32;;;1.40;;
60233;SDS011;49514;43.538;-5.708;2024-03-08T16:43:07;6.78;;;1.60;;
60233;SDS011;49514;43.538;-5.708;2024-03-08T16:45:37;4.22;;;1.20;;
60233;SDS011;49514;43.538;-5.708;2024-03-08T16:48:05;7.28;;;1.90;;
60233;SDS011;49514;43.538;-5.708;2024-03-08T16:50:36;8.68;;;1.88;;
60233;SDS011;49514;43.538;-5.708;2024-03-08T16:53:03;10.25;;;2.17;;
60233;SDS011;49514;43.538;-5.708;2024-03-08T16:55:30;9.93;;;2.55;;
60233;SDS011;49514;43.538;-5.708;2024-03-08T16:57:57;14.82;;;2.60;;
60233;SDS011;49514;43.538;-5.708;2024-03-08T17:00:24;12.55;;;2.67;;
60233;SDS011;49514;43.538;-5.708;2024-03-08T17:02:58;10.35;;;2.40;;
60233;SDS011;49514;43.538;-5.708;2024-03-08T17:05:28;11.13;;;2.38;;
60233;SDS011;49514;43.538;-5.708;2024-03-08T17:07:56;11.57;;;2.70;;
60233;SDS011;49514;43.538;-5.708;2024-03-08T17:10:26;10.05;;;2.00;;
60233;SDS011;49514;43.538;-5.708;2024-03-08T17:13:03;5.57;;;1.77;;
60233;SDS011;49514;43.538;-5.708;2024-03-08T17:15:31;8.70;;;2.20;;
60233;SDS011;49514;43.538;-5.708;2024-03-08T17:18:00;7.80;;;1.77;;
60233;SDS011;49514;43.538;-5.708;2024-03-08T17:20:34;5.43;;;1.83;;
60233;SDS011;49514;43.538;-5.708;2024-03-08T17:23:07;8.60;;;2.05;;
60233;SDS011;49514;43.538;-5.708;2024-03-08T17:25:39;4.00;;;1.25;;
60233;SDS011;49514;43.538;-5.708;2024-03-08T17:28:06;3.42;;;1.45;;
60233;SDS011;49514;43.538;-5.708;2024-03-08T17:30:34;7.93;;;1.83;;
60233;SDS011;49514;43.538;-5.708;2024-03-08T17:33:04;7.45;;;1.90;;
60233;SDS011;49514;43.538;-5.708;2024-03-08T17:35:36;9.43;;;1.83;;
60233;SDS011;49514;43.538;-5.708;2024-03-08T17:38:06;12.73;;;2.08;;
60233;SDS011;49514;43.538;-5.708;2024-03-08T17:40:40;12.35;;;2.60;;
60233;SDS011;49514;43.538;-5.708;2024-03-08T17:43:09;12.43;;;2.47;;
60233;SDS011;49514;43.538;-5.708;2024-03-08T17:45:37;8.20;;;1.90;;
60233;SDS011;49514;43.538;-5.708;2024-03-08T17:48:07;8.00;;;2.10;;
60233;SDS011;49514;43.538;-5.708;2024-03-08T17:50:42;9.52;;;2.60;;
60233;SDS011;49514;43.538;-5.708;2024-03-08T17:53:09;10.70;;;2.22;;
60233;SDS011;49514;43.538;-5.708;2024-03-08T17:55:37;4.63;;;1.88;;
60233;SDS011;49514;43.538;-5.708;2024-03-08T17:58:07;7.60;;;1.77;;
60233;SDS011;49514;43.538;-5.708;2024-03-08T18:00:34;3.92;;;1.98;;
60233;SDS011;49514;43.538;-5.708;2024-03-08T18:03:01;7.72;;;1.90;;
60233;SDS011;49514;43.538;-5.708;2024-03-08T18:05:34;10.45;;;1.63;;
60233;SDS011;49514;43.538;-5.708;2024-03-08T18:08:03;9.05;;;1.73;;
60233;SDS011;49514;43.538;-5.708;2024-03-08T18:10:31;8.48;;;1.50;;
60233;SDS011;49514;43.538;-5.708;2024-03-08T18:13:01;6.20;;;1.38;;
60233;SDS011;49514;43.538;-5.708;2024-03-08T18:15:32;5.55;;;1.25;;
60233;SDS011;49514;43.538;-5.708;2024-03-08T18:17:59;6.35;;;1.90;;
60233;SDS011;49514;43.538;-5.708;2024-03-08T18:20:29;6.38;;;1.70;;
60233;SDS011;49514;43.538;-5.708;2024-03-08T18:22:59;8.98;;;1.85;;
60233;SDS011;49514;43.538;-5.708;2024-03-08T18:25:30;5.15;;;1.80;;
60233;SDS011;49514;43.538;-5.708;2024-03-08T18:28:01;6.13;;;1.70;;
60233;SDS011;49514;43.538;-5.708;2024-03-08T18:30:32;5.90;;;1.88;;
60233;SDS011;49514;43.538;-5.708;2024-03-08T18:33:00;6.70;;;1.70;;
60233;SDS011;49514;43.538;-5.708;2024-03-08T18:35:26;8.07;;;1.67;;
60233;SDS011;49514;43.538;-5.708;2024-03-08T18:37:54;5.60;;;1.73;;
60233;SDS011;49514;43.538;-5.708;2024-03-08T18:40:22;11.07;;;2.30;;
60233;SDS011;49514;43.538;-5.708;2024-03-08T18:42:50;12.38;;;2.28;;
60233;SDS011;49514;43.538;-5.708;2024-03-08T18:45:18;6.20;;;1.83;;
60233;SDS011;49514;43.538;-5.708;2024-03-08T18:47:49;7.25;;;1.88;;
60233;SDS011;49514;43.538;-5.708;2024-03-08T18:50:16;5.45;;;1.38;;
60233;SDS011;49514;43.538;-5.708;2024-03-08T18:52:44;6.03;;;1.73;;
60233;SDS011;49514;43.538;-5.708;2024-03-08T18:55:14;9.85;;;1.70;;
60233;SDS011;49514;43.538;-5.708;2024-03-08T18:57:43;7.65;;;1.80;;
60233;SDS011;49514;43.538;-5.708;2024-03-08T19:00:28;11.25;;;1.60;;
60233;SDS011;49514;43.538;-5.708;2024-03-08T19:03:05;4.32;;;1.20;;
60233;SDS011;49514;43.538;-5.708;2024-03-08T19:05:37;7.25;;;1.65;;
60233;SDS011;49514;43.538;-5.708;2024-03-08T19:08:07;5.18;;;1.52;;
60233;SDS011;49514;43.538;-5.708;2024-03-08T19:10:35;10.48;;;2.13;;
60233;SDS011;49514;43.538;-5.708;2024-03-08T19:13:04;6.75;;;2.60;;
60233;SDS011;49514;43.538;-5.708;2024-03-08T19:15:31;3.90;;;2.13;;
60233;SDS011;49514;43.538;-5.708;2024-03-08T19:17:58;5.28;;;1.48;;
60233;SDS011;49514;43.538;-5.708;2024-03-08T19:20:27;3.35;;;1.55;;
60233;SDS011;49514;43.538;-5.708;2024-03-08T19:22:56;2.42;;;1.30;;
60233;SDS011;49514;43.538;-5.708;2024-03-08T19:25:25;2.55;;;1.20;;
60233;SDS011;49514;43.538;-5.708;2024-03-08T19:27:57;1.70;;;1.00;;
60233;SDS011;49514;43.538;-5.708;2024-03-08T19:30:26;3.55;;;0.98;;
60233;SDS011;49514;43.538;-5.708;2024-03-08T19:32:53;2.80;;;1.20;;
60233;SDS011;49514;43.538;-5.708;2024-03-08T19:35:23;1.73;;;1.00;;
60233;SDS011;49514;43.538;-5.708;2024-03-08T19:37:53;3.30;;;1.13;;
60233;SDS011;49514;43.538;-5.708;2024-03-08T19:40:24;4.07;;;1.10;;
60233;SDS011;49514;43.538;-5.708;2024-03-08T19:42:56;1.20;;;0.82;;
60233;SDS011;49514;43.538;-5.708;2024-03-08T19:45:23;2.75;;;1.10;;
60233;SDS011;49514;43.538;-5.708;2024-03-08T19:47:59;4.07;;;1.25;;
60233;SDS011;49514;43.538;-5.708;2024-03-08T19:50:31;2.90;;;1.30;;
60233;SDS011;49514;43.538;-5.708;2024-03-08T19:52:59;3.42;;;1.15;;
60233;SDS011;49514;43.538;-5.708;2024-03-08T19:55:34;2.60;;;1.33;;
60233;SDS011;49514;43.538;-5.708;2024-03-08T19:58:03;2.88;;;1.20;;
60233;SDS011;49514;43.538;-5.708;2024-03-08T20:00:31;2.90;;;1.27;;
60233;SDS011;49514;43.538;-5.708;2024-03-08T20:03:00;3.33;;;1.17;;
60233;SDS011;49514;43.538;-5.708;2024-03-08T20:05:28;3.00;;;1.10;;
60233;SDS011;49514;43.538;-5.708;2024-03-08T20:07:58;4.93;;;1.40;;
60233;SDS011;49514;43.538;-5.708;2024-03-08T20:10:36;2.63;;;1.42;;
60233;SDS011;49514;43.538;-5.708;2024-03-08T20:13:04;5.90;;;1.48;;
60233;SDS011;49514;43.538;-5.708;2024-03-08T20:15:37;3.78;;;1.40;;
60233;SDS011;49514;43.538;-5.708;2024-03-08T20:18:12;3.40;;;1.70;;
60233;SDS011;49514;43.538;-5.708;2024-03-08T20:20:39;3.05;;;1.50;;
60233;SDS011;49514;43.538;-5.708;2024-03-08T20:23:08;4.60;;;1.70;;
60233;SDS011;49514;43.538;-5.708;2024-03-08T20:25:38;5.13;;;1.80;;
60233;SDS011;49514;43.538;-5.708;2024-03-08T20:28:10;2.90;;;1.45;;
60233;SDS011;49514;43.538;-5.708;2024-03-08T20:30:37;2.70;;;1.25;;
60233;SDS011;49514;43.538;-5.708;2024-03-08T20:33:07;3.35;;;1.52;;
60233;SDS011;49514;43.538;-5.708;2024-03-08T20:35:34;2.45;;;1.38;;
60233;SDS011;49514;43.538;-5.708;2024-03-08T20:38:02;2.90;;;1.50;;
60233;SDS011;49514;43.538;-5.708;2024-03-08T20:40:33;2.33;;;1.42;;
60233;SDS011;49514;43.538;-5.708;2024-03-08T20:43:09;3.20;;;1.75;;
60233;SDS011;49514;43.538;-5.708;2024-03-08T20:45:37;4.10;;;1.92;;
60233;SDS011;49514;43.538;-5.708;2024-03-08T20:48:05;5.30;;;2.53;;
60233;SDS011;49514;43.538;-5.708;2024-03-08T20:50:33;6.25;;;2.80;;
60233;SDS011;49514;43.538;-5.708;2024-03-08T20:53:04;8.45;;;3.85;;
60233;SDS011;49514;43.538;-5.708;2024-03-08T20:55:36;6.88;;;3.90;;
60233;SDS011;49514;43.538;-5.708;2024-03-08T20:58:14;4.60;;;3.00;;
60233;SDS011;49514;43.538;-5.708;2024-03-08T21:00:42;2.45;;;1.52;;
60233;SDS011;49514;43.538;-5.708;2024-03-08T21:03:19;1.05;;;0.73;;
60233;SDS011;49514;43.538;-5.708;2024-03-08T21:05:49;1.50;;;0.77;;
60233;SDS011;49514;43.538;-5.708;2024-03-08T21:08:20;4.00;;;0.70;;
60233;SDS011;49514;43.538;-5.708;2024-03-08T21:10:55;0.63;;;0.30;;
60233;SDS011;49514;43.538;-5.708;2024-03-08T21:13:22;0.20;;;0.20;;
60233;SDS011;49514;43.538;-5.708;2024-03-08T21:15:52;0.45;;;0.40;;
60233;SDS011;49514;43.538;-5.708;2024-03-08T21:18:20;1.55;;;0.30;;
60233;SDS011;49514;43.538;-5.708;2024-03-08T21:20:48;0.52;;;0.50;;
60233;SDS011;49514;43.538;-5.708;2024-03-08T21:23:15;0.28;;;0.20;;
60233;SDS011;49514;43.538;-5.708;2024-03-08T21:25:42;0.52;;;0.20;;
60233;SDS011;49514;43.538;-5.708;2024-03-08T21:28:09;2.22;;;0.30;;
60233;SDS011;49514;43.538;-5.708;2024-03-08T21:30:37;0.45;;;0.40;;
60233;SDS011;49514;43.538;-5.708;2024-03-08T21:33:07;0.40;;;0.35;;
60233;SDS011;49514;43.538;-5.708;2024-03-08T21:35:37;0.20;;;0.20;;
60233;SDS011;49514;43.538;-5.708;2024-03-08T21:38:04;0.20;;;0.10;;
60233;SDS011;49514;43.538;-5.708;2024-03-08T21:40:32;0.20;;;0.20;;
60233;SDS011;49514;43.538;-5.708;2024-03-08T21:43:01;0.17;;;0.10;;
60233;SDS011;49514;43.538;-5.708;2024-03-08T21:45:31;0.20;;;0.20;;
60233;SDS011;49514;43.538;-5.708;2024-03-08T21:48:03;0.35;;;0.30;;
60233;SDS011;49514;43.538;-5.708;2024-03-08T21:50:31;0.28;;;0.20;;
60233;SDS011;49514;43.538;-5.708;2024-03-08T21:53:01;0.20;;;0.20;;
60233;SDS011;49514;43.538;-5.708;2024-03-08T21:55:29;0.32;;;0.22;;
60233;SDS011;49514;43.538;-5.708;2024-03-08T21:57:57;2.80;;;0.80;;
60233;SDS011;49514;43.538;-5.708;2024-03-08T22:00:28;5.18;;;1.35;;
60233;SDS011;49514;43.538;-5.708;2024-03-08T22:02:58;8.63;;;1.90;;
60233;SDS011;49514;43.538;-5.708;2024-03-08T22:05:26;11.80;;;2.67;;
60233;SDS011;49514;43.538;-5.708;2024-03-08T22:07:55;7.78;;;2.50;;
60233;SDS011;49514;43.538;-5.708;2024-03-08T22:10:23;8.52;;;3.30;;
60233;SDS011;49514;43.538;-5.708;2024-03-08T22:12:57;6.85;;;2.40;;
60233;SDS011;49514;43.538;-5.708;2024-03-08T22:15:25;4.50;;;2.30;;
60233;SDS011;49514;43.538;-5.708;2024-03-08T22:17:53;2.97;;;1.10;;
60233;SDS011;49514;43.538;-5.708;2024-03-08T22:20:21;1.88;;;1.02;;
60233;SDS011;49514;43.538;-5.708;2024-03-08T22:22:52;1.73;;;1.00;;
60233;SDS011;49514;43.538;-5.708;2024-03-08T22:25:20;3.42;;;0.90;;
60233;SDS011;49514;43.538;-5.708;2024-03-08T22:27:50;1.80;;;0.80;;
60233;SDS011;49514;43.538;-5.708;2024-03-08T22:30:19;0.60;;;0.50;;
60233;SDS011;49514;43.538;-5.708;2024-03-08T22:32:49;1.70;;;0.40;;
60233;SDS011;49514;43.538;-5.708;2024-03-08T22:35:19;1.48;;;0.70;;
60233;SDS011;49514;43.538;-5.708;2024-03-08T22:37:50;1.83;;;0.60;;
60233;SDS011;49514;43.538;-5.708;2024-03-08T22:40:17;2.25;;;0.80;;
60233;SDS011;49514;43.538;-5.708;2024-03-08T22:42:50;1.02;;;0.50;;
60233;SDS011;49514;43.538;-5.708;2024-03-08T22:45:17;0.80;;;0.50;;
60233;SDS011;49514;43.538;-5.708;2024-03-08T22:47:44;0.77;;;0.55;;
60233;SDS011;49514;43.538;-5.708;2024-03-08T22:50:14;1.27;;;0.68;;
60233;SDS011;49514;43.538;-5.708;2024-03-08T22:52:43;3.20;;;0.70;;
60233;SDS011;49514;43.538;-5.708;2024-03-08T22:55:11;4.05;;;1.00;;
60233;SDS011;49514;43.538;-5.708;2024-03-08T22:57:44;3.00;;;1.08;;
60233;SDS011;49514;43.538;-5.708;2024-03-08T23:00:14;1.48;;;0.90;;
60233;SDS011;49514;43.538;-5.708;2024-03-08T23:02:51;2.88;;;0.90;;
60233;SDS011;49514;43.538;-5.708;2024-03-08T23:05:19;0.80;;;0.57;;
60233;SDS011;49514;43.538;-5.708;2024-03-08T23:07:48;0.98;;;0.40;;
60233;SDS011;49514;43.538;-5.708;2024-03-08T23:10:15;0.88;;;0.40;;
60233;SDS011;49514;43.538;-5.708;2024-03-08T23:12:42;0.40;;;0.40;;
60233;SDS011;49514;43.538;-5.708;2024-03-08T23:15:11;0.95;;;0.60;;
60233;SDS011;49514;43.538;-5.708;2024-03-08T23:17:40;0.55;;;0.50;;
60233;SDS011;49514;43.538;-5.708;2024-03-08T23:20:09;2.13;;;0.60;;
60233;SDS011;49514;43.538;-5.708;2024-03-08T23:22:43;2.60;;;0.65;;
60233;SDS011;49514;43.538;-5.708;2024-03-08T23:25:16;4.47;;;0.98;;
60233;SDS011;49514;43.538;-5.708;2024-03-08T23:27:51;7.57;;;0.98;;
60233;SDS011;49514;43.538;-5.708;2024-03-08T23:30:19;11.00;;;1.25;;
60233;SDS011;49514;43.538;-5.708;2024-03-08T23:32:48;2.50;;;0.82;;
60233;SDS011;49514;43.538;-5.708;2024-03-08T23:35:17;7.75;;;1.20;;
60233;SDS011;49514;43.538;-5.708;2024-03-08T23:37:47;7.10;;;1.67;;
60233;SDS011;49514;43.538;-5.708;2024-03-08T23:40:16;5.55;;;1.05;;
60233;SDS011;49514;43.538;-5.708;2024-03-08T23:42:44;5.15;;;1.27;;
60233;SDS011;49514;43.538;-5.708;2024-03-08T23:45:12;3.03;;;0.77;;
60233;SDS011;49514;43.538;-5.708;2024-03-08T23:47:42;4.85;;;0.70;;
60233;SDS011;49514;43.538;-5.708;2024-03-08T23:50:11;3.30;;;0.55;;
60233;SDS011;49514;43.538;-5.708;2024-03-08T23:52:42;1.83;;;0.60;;
60233;SDS011;49514;43.538;-5.708;2024-03-08T23:55:12;0.45;;;0.40;;
60233;SDS011;49514;43.538;-5.708;2024-03-08T23:57:43;1.38;;;0.50;;
